createdAt,value
2019-05-14T00:02:03.662Z,1.30
2019-05-14T00:04:51.222Z,1.30
2019-05-14T00:07:25.314Z,1.50
2019-05-14T00:09:58.113Z,1.95
2019-05-14T00:12:33.671Z,2.10
2019-05-14T00:15:25.068Z,1.77
2019-05-14T00:18:07.587Z,1.40
2019-05-14T00:20:41.983Z,1.60
2019-05-14T00:23:14.562Z,1.10
2019-05-14T00:25:46.823Z,1.40
2019-05-14T00:28:21.286Z,1.47
2019-05-14T00:30:55.299Z,1.50
2019-05-14T00:33:28.660Z,1.37
2019-05-14T00:36:03.312Z,1.25
2019-05-14T00:38:37.626Z,1.37
2019-05-14T00:41:11.225Z,1.37
2019-05-14T00:43:44.803Z,1.50
2019-05-14T00:46:17.086Z,1.40
2019-05-14T00:48:51.681Z,1.50
2019-05-14T00:51:24.494Z,1.27
2019-05-14T00:53:56.832Z,1.10
2019-05-14T00:56:32.147Z,1.12
2019-05-14T00:59:04.468Z,1.50
2019-05-14T01:01:36.421Z,1.37
2019-05-14T01:04:11.723Z,1.27
2019-05-14T01:06:44.070Z,1.65
2019-05-14T01:09:16.890Z,1.42
2019-05-14T01:11:51.330Z,1.35
2019-05-14T01:14:28.785Z,1.32
2019-05-14T01:17:22.513Z,1.70
2019-05-14T01:19:58.069Z,1.27
2019-05-14T01:22:31.620Z,1.52
2019-05-14T01:25:04.184Z,1.10
2019-05-14T01:27:36.823Z,1.22
2019-05-14T01:30:12.523Z,1.20
2019-05-14T01:32:45.398Z,1.32
2019-05-14T01:35:22.175Z,1.25
2019-05-14T01:37:58.680Z,1.30
2019-05-14T01:40:31.570Z,1.35
2019-05-14T01:43:13.705Z,1.57
2019-05-14T01:45:52.684Z,1.60
2019-05-14T01:48:27.515Z,1.75
2019-05-14T01:51:04.316Z,1.67
2019-05-14T01:53:37.243Z,1.30
2019-05-14T01:56:12.622Z,1.65
2019-05-14T01:58:47.646Z,1.40
2019-05-14T02:01:22.136Z,1.47
2019-05-14T02:04:07.130Z,1.30
2019-05-14T02:06:41.462Z,1.40
2019-05-14T02:09:14.984Z,1.37
2019-05-14T02:11:47.672Z,1.45
2019-05-14T02:14:22.067Z,1.77
2019-05-14T02:16:57.400Z,1.65
2019-05-14T02:19:31.654Z,1.30
2019-05-14T02:22:05.318Z,1.37
2019-05-14T02:24:41.709Z,1.82
2019-05-14T02:27:16.609Z,1.82
2019-05-14T02:29:55.944Z,1.60
2019-05-14T02:32:34.931Z,1.77
2019-05-14T02:35:11.814Z,1.70
2019-05-14T02:40:21.369Z,1.27
2019-05-14T02:42:59.307Z,1.62
2019-05-14T02:45:32.674Z,1.27
2019-05-14T02:48:09.581Z,1.42
2019-05-14T02:50:49.504Z,1.40
2019-05-14T02:53:22.367Z,1.55
2019-05-14T02:55:59.209Z,1.40
2019-05-14T02:58:39.841Z,1.87
2019-05-14T03:01:25.823Z,1.50
2019-05-14T03:04:00.825Z,1.65
2019-05-14T03:06:35.204Z,1.72
2019-05-14T03:09:20.346Z,1.60
2019-05-14T03:11:59.518Z,2.02
2019-05-14T03:14:32.432Z,1.77
2019-05-14T03:17:03.750Z,1.62
2019-05-14T03:19:43.543Z,1.90
2019-05-14T03:22:27.554Z,1.55
2019-05-14T03:24:59.616Z,1.60
2019-05-14T03:27:30.660Z,1.80
2019-05-14T03:30:02.785Z,1.90
2019-05-14T03:32:41.669Z,2.02
2019-05-14T03:35:14.505Z,1.98
2019-05-14T03:37:49.595Z,2.00
2019-05-14T03:40:29.487Z,2.12
2019-05-14T03:43:08.916Z,2.10
2019-05-14T03:45:39.374Z,1.70
2019-05-14T03:48:19.353Z,1.98
2019-05-14T03:50:52.806Z,1.90
2019-05-14T03:53:29.287Z,2.10
2019-05-14T03:56:01.379Z,2.42
2019-05-14T04:01:09.782Z,2.30
2019-05-14T04:03:42.097Z,2.47
2019-05-14T04:06:20.665Z,2.42
2019-05-14T04:08:56.203Z,2.42
2019-05-14T04:11:33.174Z,2.40
2019-05-14T04:14:09.719Z,2.33
2019-05-14T04:18:23.743Z,2.50
2019-05-14T04:21:00.368Z,2.00
2019-05-14T04:23:39.969Z,2.40
2019-05-14T04:26:19.992Z,1.95
2019-05-14T04:29:00.557Z,2.33
2019-05-14T04:31:39.073Z,1.82
2019-05-14T04:34:14.633Z,2.10
2019-05-14T04:36:52.557Z,1.82
2019-05-14T04:39:26.004Z,1.80
2019-05-14T04:42:00.287Z,1.80
2019-05-14T04:47:22.837Z,2.05
2019-05-14T04:49:40.176Z,2.05
2019-05-14T04:52:13.326Z,1.90
2019-05-14T04:54:45.673Z,2.15
2019-05-14T04:57:20.357Z,1.92
2019-05-14T04:59:54.173Z,2.30
2019-05-14T05:02:30.360Z,2.20
2019-05-14T05:05:02.550Z,2.10
2019-05-14T05:07:34.594Z,2.08
2019-05-14T05:10:10.167Z,2.10
2019-05-14T05:12:42.813Z,2.00
2019-05-14T05:15:15.547Z,2.02
2019-05-14T05:17:52.972Z,1.90
2019-05-14T05:20:29.135Z,2.55
2019-05-14T05:23:04.625Z,2.12
2019-05-14T05:25:38.437Z,2.00
2019-05-14T05:28:15.517Z,1.98
2019-05-14T05:30:58.578Z,1.90
2019-05-14T05:33:42.499Z,2.40
2019-05-14T05:38:49.548Z,2.15
2019-05-14T05:41:21.660Z,2.17
2019-05-14T05:43:53.923Z,2.47
2019-05-14T05:46:33.868Z,2.10
2019-05-14T05:49:08.087Z,2.35
2019-05-14T05:51:43.457Z,2.20
2019-05-14T05:54:21.140Z,2.10
2019-05-14T05:56:53.434Z,2.10
2019-05-14T05:59:26.142Z,2.20
2019-05-14T06:02:02.461Z,2.37
2019-05-14T06:04:36.216Z,2.40
2019-05-14T06:07:09.143Z,2.70
2019-05-14T06:09:52.858Z,2.80
2019-05-14T06:12:29.627Z,2.40
2019-05-14T06:15:08.807Z,2.72
2019-05-14T06:17:41.107Z,2.50
2019-05-14T06:22:54.203Z,2.02
2019-05-14T06:25:35.533Z,2.17
2019-05-14T06:28:08.807Z,2.50
2019-05-14T06:30:43.893Z,2.77
2019-05-14T06:33:19.417Z,2.50
2019-05-14T06:35:52.090Z,2.52
2019-05-14T06:38:25.116Z,2.40
2019-05-14T06:40:59.305Z,2.15
2019-05-14T06:43:39.472Z,2.40
2019-05-14T06:46:18.993Z,1.90
2019-05-14T06:48:55.785Z,2.90
2019-05-14T06:51:33.405Z,2.58
2019-05-14T06:54:14.289Z,2.52
2019-05-14T06:56:48.909Z,2.30
2019-05-14T06:59:22.646Z,2.40
2019-05-14T07:01:54.886Z,2.27
2019-05-14T07:04:28.913Z,2.12
2019-05-14T07:07:01.230Z,2.12
2019-05-14T07:09:35.539Z,2.35
2019-05-14T07:12:09.169Z,2.60
2019-05-14T07:14:43.259Z,2.20
2019-05-14T07:17:21.292Z,2.20
2019-05-14T07:19:58.259Z,2.30
2019-05-14T07:22:32.645Z,2.30
2019-05-14T07:25:10.923Z,2.60
2019-05-14T07:27:50.060Z,2.27
2019-05-14T07:30:28.338Z,2.60
2019-05-14T07:33:01.954Z,2.33
2019-05-14T07:35:38.360Z,2.30
2019-05-14T07:38:15.365Z,2.40
2019-05-14T07:40:54.255Z,2.25
2019-05-14T07:45:10.594Z,2.20
2019-05-14T07:48:05.544Z,2.15
2019-05-14T07:50:42.030Z,2.10
2019-05-14T07:53:14.597Z,2.33
2019-05-14T07:55:58.782Z,1.92
2019-05-14T07:58:31.391Z,2.30
2019-05-14T08:01:05.848Z,2.30
2019-05-14T08:03:40.625Z,2.17
2019-05-14T08:06:13.643Z,2.10
2019-05-14T08:08:50.409Z,1.87
2019-05-14T08:11:27.932Z,2.08
2019-05-14T08:14:00.732Z,2.65
2019-05-14T08:16:42.048Z,2.25
2019-05-14T08:19:24.135Z,2.00
2019-05-14T08:21:58.695Z,1.80
2019-05-14T08:24:34.713Z,1.60
2019-05-14T08:27:19.334Z,2.05
2019-05-14T08:29:55.255Z,1.70
2019-05-14T08:32:29.893Z,2.17
2019-05-14T08:35:01.899Z,2.12
2019-05-14T08:37:38.673Z,1.90
2019-05-14T08:40:21.004Z,1.80
2019-05-14T08:42:54.344Z,1.95
2019-05-14T08:45:40.612Z,2.08
2019-05-14T08:48:15.331Z,2.02
2019-05-14T08:50:51.375Z,1.82
2019-05-14T08:53:28.796Z,1.62
2019-05-14T08:56:02.859Z,2.40
2019-05-14T08:58:40.310Z,1.72
2019-05-14T09:01:13.136Z,1.92
2019-05-14T09:03:49.208Z,2.10
2019-05-14T09:06:25.414Z,2.31
2019-05-14T09:09:08.821Z,2.00
2019-05-14T09:11:45.550Z,1.72
2019-05-14T09:14:15.079Z,2.25
2019-05-14T09:16:50.879Z,2.10
2019-05-14T09:19:24.951Z,1.75
2019-05-14T09:21:58.852Z,2.10
2019-05-14T09:27:21.163Z,1.87
2019-05-14T09:29:55.869Z,2.20
2019-05-14T09:32:32.060Z,2.02
2019-05-14T09:35:04.089Z,1.80
2019-05-14T09:37:39.508Z,2.10
2019-05-14T09:40:12.174Z,1.75
2019-05-14T09:42:49.951Z,1.82
2019-05-14T09:45:24.181Z,1.92
2019-05-14T09:47:59.899Z,1.80
2019-05-14T09:53:10.894Z,1.45
2019-05-14T09:55:45.698Z,1.57
2019-05-14T09:58:20.549Z,1.85
2019-05-14T10:00:59.047Z,1.70
2019-05-14T10:03:33.328Z,1.55
2019-05-14T10:06:09.478Z,1.62
2019-05-14T10:08:43.111Z,1.70
2019-05-14T10:11:17.167Z,2.02
2019-05-14T10:13:54.878Z,1.82
2019-05-14T10:16:29.116Z,1.47
2019-05-14T10:19:01.644Z,1.40
2019-05-14T10:21:34.479Z,1.25
2019-05-14T10:24:11.483Z,1.50
2019-05-14T10:26:45.309Z,1.67
2019-05-14T10:29:19.294Z,1.40
2019-05-14T10:37:01.210Z,1.47
2019-05-14T10:39:33.474Z,1.35
2019-05-14T10:42:08.324Z,1.72
2019-05-14T10:44:40.828Z,1.42
2019-05-14T10:47:18.738Z,1.20
2019-05-14T10:49:58.368Z,1.50
2019-05-14T10:52:31.580Z,1.92
2019-05-14T10:55:08.003Z,1.55
2019-05-14T10:57:41.425Z,1.80
2019-05-14T11:00:14.859Z,1.12
2019-05-14T11:02:54.305Z,1.10
2019-05-14T11:08:15.689Z,1.67
2019-05-14T11:10:49.841Z,1.37
2019-05-14T11:13:29.945Z,1.37
2019-05-14T11:16:08.629Z,1.47
2019-05-14T11:18:49.252Z,1.47
2019-05-14T11:21:29.186Z,1.52
2019-05-14T11:24:01.675Z,1.42
2019-05-14T11:26:39.109Z,1.62
2019-05-14T11:29:12.381Z,1.65
2019-05-14T11:31:48.492Z,1.30
2019-05-14T11:34:22.382Z,1.62
2019-05-14T11:36:59.201Z,1.40
2019-05-14T11:39:32.187Z,1.30
2019-05-14T11:42:08.762Z,1.50
2019-05-14T11:44:43.271Z,1.30
2019-05-14T11:47:15.354Z,1.50
2019-05-14T11:49:51.482Z,1.40
2019-05-14T11:52:30.351Z,1.35
2019-05-14T11:55:09.034Z,1.30
2019-05-14T11:57:41.751Z,1.87
2019-05-14T12:00:16.395Z,1.47
2019-05-14T12:02:48.800Z,1.42
2019-05-14T12:10:38.678Z,1.50
2019-05-14T12:13:11.923Z,1.30
2019-05-14T12:15:48.347Z,1.87
2019-05-14T12:18:25.409Z,1.40
2019-05-14T12:21:08.959Z,1.07
2019-05-14T12:23:44.533Z,1.32
2019-05-14T12:26:19.164Z,1.00
2019-05-14T12:28:52.048Z,1.05
2019-05-14T12:31:28.983Z,1.12
2019-05-14T12:34:03.244Z,1.40
2019-05-14T12:39:10.396Z,1.20
2019-05-14T12:41:43.146Z,1.30
2019-05-14T12:44:19.599Z,2.30
2019-05-14T12:46:54.301Z,1.20
2019-05-14T12:49:32.802Z,1.90
2019-05-14T12:52:20.957Z,1.55
2019-05-14T12:54:39.887Z,1.50
2019-05-14T12:57:13.283Z,1.10
2019-05-14T12:59:49.029Z,1.10
2019-05-14T13:02:22.915Z,1.30
2019-05-14T13:04:55.806Z,1.47
2019-05-14T13:07:30.416Z,1.10
2019-05-14T13:10:04.769Z,1.10
2019-05-14T13:12:39.466Z,1.07
2019-05-14T13:17:56.637Z,0.98
2019-05-14T13:20:34.065Z,1.20
2019-05-14T13:23:09.787Z,1.22
2019-05-14T13:25:43.091Z,1.35
2019-05-14T13:28:16.124Z,1.30
2019-05-14T13:30:53.891Z,1.10
2019-05-14T13:33:28.495Z,0.78
2019-05-14T13:36:00.817Z,1.12
2019-05-14T13:38:33.610Z,1.00
2019-05-14T13:41:08.467Z,1.10
2019-05-14T13:43:42.722Z,1.15
2019-05-14T13:46:15.564Z,1.00
2019-05-14T13:48:49.964Z,0.98
2019-05-14T13:51:29.385Z,0.80
2019-05-14T13:54:00.711Z,0.80
2019-05-14T13:56:34.908Z,0.70
2019-05-14T13:59:09.561Z,0.75
2019-05-14T14:01:41.450Z,0.88
2019-05-14T14:04:15.258Z,0.72
2019-05-14T14:06:55.329Z,1.00
2019-05-14T14:09:28.340Z,0.90
2019-05-14T14:12:02.500Z,0.90
2019-05-14T14:14:38.606Z,0.80
2019-05-14T14:17:18.481Z,0.70
2019-05-14T14:19:52.520Z,0.70
2019-05-14T14:24:55.797Z,0.80
2019-05-14T14:27:30.307Z,0.90
2019-05-14T14:30:11.436Z,1.10
2019-05-14T14:32:44.347Z,0.80
2019-05-14T14:35:23.616Z,0.70
2019-05-14T14:37:55.472Z,0.75
2019-05-14T14:40:30.157Z,0.85
2019-05-14T14:45:35.499Z,0.70
2019-05-14T14:48:12.228Z,0.70
2019-05-14T14:50:45.199Z,0.80
2019-05-14T14:53:40.880Z,0.85
2019-05-14T14:56:00.852Z,0.70
